createdAt,value
2022-12-27T00:00:09.862Z,2.20
2022-12-27T00:03:04.498Z,4.00
2022-12-27T00:05:33.063Z,4.00
2022-12-27T00:08:01.420Z,3.00
2022-12-27T00:10:29.710Z,4.50
2022-12-27T00:12:58.044Z,3.40
2022-12-27T00:15:27.261Z,3.90
2022-12-27T00:17:55.971Z,3.20
2022-12-27T00:20:24.263Z,3.40
2022-12-27T00:22:52.496Z,2.70
2022-12-27T00:25:20.799Z,5.00
2022-12-27T00:27:49.061Z,5.50
2022-12-27T00:30:17.363Z,5.50
2022-12-27T00:32:45.702Z,3.10
2022-12-27T00:35:14.149Z,5.30
2022-12-27T00:37:42.456Z,2.80
2022-12-27T00:40:11.324Z,4.80
2022-12-27T00:42:39.555Z,3.70
2022-12-27T00:45:08.402Z,4.60
2022-12-27T00:47:36.942Z,3.90
2022-12-27T00:50:05.598Z,8.10
2022-12-27T00:52:34.040Z,5.60
2022-12-27T00:55:02.346Z,4.70
2022-12-27T00:57:30.692Z,3.70
2022-12-27T01:00:00.571Z,5.20
2022-12-27T01:02:30.636Z,5.20
2022-12-27T01:04:59.074Z,5.30
2022-12-27T01:07:27.925Z,5.20
2022-12-27T01:09:56.193Z,6.20
2022-12-27T01:12:24.486Z,8.70
2022-12-27T01:14:52.800Z,6.60
2022-12-27T01:17:21.204Z,8.30
2022-12-27T01:19:49.409Z,4.70
2022-12-27T01:22:17.821Z,4.50
2022-12-27T01:24:46.385Z,5.00
2022-12-27T01:27:14.725Z,5.80
2022-12-27T01:29:43.285Z,7.30
2022-12-27T01:32:12.237Z,6.40
2022-12-27T01:34:41.027Z,8.40
2022-12-27T01:37:09.396Z,4.80
2022-12-27T01:39:37.698Z,4.20
2022-12-27T01:42:35.127Z,4.80
2022-12-27T01:45:15.052Z,4.20
2022-12-27T01:47:47.933Z,5.60
2022-12-27T01:50:26.004Z,7.90
2022-12-27T01:53:07.106Z,6.00
2022-12-27T01:55:56.281Z,3.80
2022-12-27T01:58:30.421Z,5.80
2022-12-27T02:00:59.453Z,6.20
2022-12-27T02:03:59.915Z,6.40
2022-12-27T02:06:31.519Z,8.90
2022-12-27T02:09:06.298Z,6.60
2022-12-27T02:11:52.085Z,3.80
2022-12-27T02:14:44.058Z,5.80
2022-12-27T02:17:16.437Z,7.10
2022-12-27T02:19:59.351Z,10.70
2022-12-27T02:23:17.899Z,6.30
2022-12-27T02:26:04.834Z,4.30
2022-12-27T02:28:33.004Z,5.70
2022-12-27T02:31:11.865Z,6.60
2022-12-27T02:33:47.175Z,8.80
2022-12-27T02:36:23.471Z,3.50
2022-12-27T02:38:56.485Z,5.30
2022-12-27T02:41:44.757Z,8.70
2022-12-27T02:44:35.911Z,7.20
2022-12-27T02:47:30.580Z,5.60
2022-12-27T02:50:17.288Z,5.80
2022-12-27T02:53:08.139Z,8.10
2022-12-27T02:56:19.127Z,6.10
2022-12-27T02:59:08.926Z,7.00
2022-12-27T03:02:40.980Z,7.50
2022-12-27T03:05:38.717Z,6.50
2022-12-27T03:08:29.001Z,11.30
2022-12-27T03:11:19.685Z,7.70
2022-12-27T03:14:15.940Z,5.80
2022-12-27T03:16:57.133Z,12.40
2022-12-27T03:19:57.268Z,8.80
2022-12-27T03:22:47.313Z,11.20
2022-12-27T03:25:28.925Z,7.40
2022-12-27T03:28:23.793Z,9.50
2022-12-27T03:31:34.157Z,8.40
2022-12-27T03:34:27.660Z,10.60
2022-12-27T03:37:18.487Z,12.80
2022-12-27T03:40:11.010Z,17.90
2022-12-27T03:43:08.665Z,9.30
2022-12-27T03:49:05.675Z,12.20
2022-12-27T03:51:48.867Z,5.60
2022-12-27T03:54:28.114Z,8.60
2022-12-27T03:57:05.680Z,16.50
2022-12-27T03:59:34.304Z,9.80
2022-12-27T04:02:03.252Z,14.10
2022-12-27T04:04:31.656Z,11.40
2022-12-27T04:06:59.825Z,11.00
2022-12-27T04:09:46.513Z,12.10
2022-12-27T04:12:33.561Z,10.70
2022-12-27T04:15:20.432Z,12.50
2022-12-27T04:18:07.389Z,12.90
2022-12-27T04:20:54.374Z,14.60
2022-12-27T04:23:41.136Z,15.10
2022-12-27T04:26:28.461Z,11.10
2022-12-27T04:29:15.025Z,9.40
2022-12-27T04:32:02.332Z,8.90
2022-12-27T04:34:45.241Z,12.30
2022-12-27T04:37:16.794Z,9.80
2022-12-27T04:40:21.327Z,9.60
2022-12-27T04:43:28.265Z,12.40
2022-12-27T04:46:15.689Z,14.70
2022-12-27T04:49:02.222Z,11.80
2022-12-27T04:51:48.937Z,11.30
2022-12-27T04:54:40.742Z,10.90
2022-12-27T04:57:08.934Z,12.50
2022-12-27T04:59:55.568Z,8.20
2022-12-27T05:02:23.881Z,19.30
2022-12-27T05:04:52.208Z,8.40
2022-12-27T05:07:39.420Z,17.10
2022-12-27T05:10:27.227Z,16.00
2022-12-27T05:13:13.945Z,10.60
2022-12-27T05:15:42.154Z,11.60
2022-12-27T05:18:10.350Z,14.60
2022-12-27T05:20:38.668Z,11.30
2022-12-27T05:23:25.330Z,11.50
2022-12-27T05:25:53.514Z,15.20
2022-12-27T05:28:21.674Z,14.70
2022-12-27T05:30:49.909Z,9.80
2022-12-27T05:33:18.231Z,13.10
2022-12-27T05:35:46.365Z,13.20
2022-12-27T05:38:14.454Z,14.50
2022-12-27T05:40:42.576Z,16.10
2022-12-27T05:43:10.721Z,14.70
2022-12-27T05:45:38.855Z,12.40
2022-12-27T05:48:07.009Z,14.30
2022-12-27T05:50:35.270Z,12.10
2022-12-27T05:53:14.136Z,14.90
2022-12-27T05:55:42.728Z,15.70
2022-12-27T05:58:10.945Z,14.80
2022-12-27T06:00:39.863Z,10.70
2022-12-27T06:03:08.272Z,12.00
2022-12-27T06:05:36.472Z,14.50
2022-12-27T06:08:04.866Z,14.30
2022-12-27T06:10:32.979Z,11.70
2022-12-27T06:13:01.816Z,12.50
2022-12-27T06:15:30.512Z,12.40
2022-12-27T06:18:00.588Z,11.80
2022-12-27T06:20:28.893Z,10.60
2022-12-27T06:22:59.798Z,11.70
2022-12-27T06:25:28.319Z,13.70
2022-12-27T06:27:56.469Z,17.30
2022-12-27T06:30:24.889Z,14.80
2022-12-27T06:32:52.990Z,16.30
2022-12-27T06:35:21.151Z,19.30
2022-12-27T06:37:49.403Z,16.70
2022-12-27T06:40:17.713Z,16.20
2022-12-27T06:42:45.863Z,17.90
2022-12-27T06:45:14.051Z,21.00
2022-12-27T06:47:42.317Z,17.90
2022-12-27T06:50:11.115Z,16.20
2022-12-27T06:52:39.673Z,16.20
2022-12-27T06:55:08.234Z,11.90
2022-12-27T06:57:36.628Z,12.70
2022-12-27T07:00:05.799Z,9.80
2022-12-27T07:02:34.383Z,13.20
2022-12-27T07:05:02.756Z,14.00
2022-12-27T07:07:31.124Z,10.30
2022-12-27T07:09:59.432Z,17.80
2022-12-27T07:12:30.621Z,10.90
2022-12-27T07:15:04.199Z,11.40
2022-12-27T07:17:37.641Z,15.20
2022-12-27T07:20:07.333Z,10.80
2022-12-27T07:22:35.669Z,13.10
2022-12-27T07:25:04.941Z,12.70
2022-12-27T07:27:35.281Z,11.80
2022-12-27T07:30:05.118Z,15.40
2022-12-27T07:32:33.549Z,15.90
2022-12-27T07:35:01.928Z,17.40
2022-12-27T07:37:30.328Z,11.70
2022-12-27T07:39:58.659Z,14.30
2022-12-27T07:42:28.986Z,19.20
2022-12-27T07:44:57.535Z,15.50
2022-12-27T07:47:25.869Z,16.60
2022-12-27T07:49:54.181Z,24.10
2022-12-27T07:52:22.543Z,17.30
2022-12-27T07:54:50.938Z,19.30
2022-12-27T07:57:19.509Z,20.10
2022-12-27T07:59:47.891Z,16.70
2022-12-27T08:02:16.947Z,21.00
2022-12-27T08:04:46.173Z,14.30
2022-12-27T08:07:17.962Z,16.20
2022-12-27T08:09:48.039Z,19.00
2022-12-27T08:12:16.643Z,20.00
2022-12-27T08:14:45.383Z,18.00
2022-12-27T08:17:22.862Z,22.60
2022-12-27T08:19:52.208Z,19.70
2022-12-27T08:22:22.006Z,19.20
2022-12-27T08:24:51.320Z,22.00
2022-12-27T08:27:24.943Z,21.30
2022-12-27T08:29:53.334Z,18.00
2022-12-27T08:32:21.797Z,22.70
2022-12-27T08:34:50.616Z,14.60
2022-12-27T08:37:19.405Z,14.90
2022-12-27T08:39:47.950Z,19.90
2022-12-27T08:42:16.479Z,18.60
2022-12-27T08:44:44.642Z,22.40
2022-12-27T08:47:13.280Z,17.10
2022-12-27T08:49:41.391Z,20.90
2022-12-27T08:52:09.787Z,27.50
2022-12-27T08:54:37.899Z,27.00
2022-12-27T08:57:06.320Z,21.00
2022-12-27T08:59:34.448Z,25.00
2022-12-27T09:02:02.923Z,24.40
2022-12-27T09:04:31.135Z,23.50
2022-12-27T09:06:59.463Z,22.90
2022-12-27T09:09:27.923Z,25.60
2022-12-27T09:11:57.279Z,27.80
2022-12-27T09:14:25.445Z,26.20
2022-12-27T09:16:53.780Z,27.40
2022-12-27T09:19:23.031Z,19.90
2022-12-27T09:21:51.408Z,17.80
2022-12-27T09:24:19.560Z,17.00
2022-12-27T09:26:48.370Z,24.20
2022-12-27T09:29:17.667Z,28.80
2022-12-27T09:31:46.146Z,29.20
2022-12-27T09:34:14.611Z,38.80
2022-12-27T09:36:43.259Z,26.50
2022-12-27T09:39:13.931Z,33.00
2022-12-27T09:42:47.759Z,33.80
2022-12-27T09:45:18.835Z,30.80
2022-12-27T09:48:01.928Z,30.10
2022-12-27T09:50:50.064Z,27.40
2022-12-27T09:53:39.619Z,31.20
2022-12-27T09:56:18.831Z,24.80
2022-12-27T09:58:50.943Z,23.60
2022-12-27T10:01:31.418Z,21.60
2022-12-27T10:04:00.678Z,18.80
2022-12-27T10:06:34.675Z,21.10
2022-12-27T10:09:25.468Z,21.80
2022-12-27T10:12:18.971Z,20.20
2022-12-27T10:15:06.153Z,18.20
2022-12-27T10:17:53.123Z,19.80
2022-12-27T10:20:40.758Z,21.20
2022-12-27T10:23:17.297Z,22.00
2022-12-27T10:25:47.274Z,22.60
2022-12-27T10:28:27.956Z,23.80
2022-12-27T10:30:56.505Z,19.50
2022-12-27T10:33:29.725Z,19.10
2022-12-27T10:35:58.611Z,22.60
2022-12-27T10:38:33.701Z,24.40
2022-12-27T10:41:29.774Z,23.20
2022-12-27T10:43:58.278Z,24.80
2022-12-27T10:46:33.064Z,23.50
2022-12-27T10:49:22.047Z,23.30
2022-12-27T10:52:00.196Z,25.20
2022-12-27T10:54:30.147Z,24.20
2022-12-27T10:57:19.408Z,22.80
2022-12-27T11:00:18.466Z,20.40
2022-12-27T11:02:57.768Z,21.10
2022-12-27T11:05:31.951Z,18.20
2022-12-27T11:08:01.545Z,26.00
2022-12-27T11:10:31.545Z,24.40
2022-12-27T11:12:59.938Z,21.40
2022-12-27T11:15:30.894Z,22.10
2022-12-27T11:18:04.766Z,24.90
2022-12-27T11:21:02.181Z,23.90
2022-12-27T11:23:49.396Z,26.30
2022-12-27T11:26:23.364Z,29.10
2022-12-27T11:28:59.132Z,32.90
2022-12-27T11:31:42.106Z,31.00
2022-12-27T11:34:23.935Z,22.10
2022-12-27T11:36:56.161Z,21.80
2022-12-27T11:39:42.249Z,23.70
2022-12-27T11:42:25.997Z,20.90
2022-12-27T11:45:05.312Z,26.10
2022-12-27T11:47:57.673Z,17.20
2022-12-27T11:50:28.653Z,20.30
2022-12-27T11:53:03.124Z,18.70
2022-12-27T11:55:40.082Z,15.90
2022-12-27T11:58:23.052Z,21.20
2022-12-27T12:01:12.606Z,17.20
2022-12-27T12:03:52.473Z,18.30
2022-12-27T12:06:34.396Z,21.20
2022-12-27T12:09:26.240Z,16.70
2022-12-27T12:12:32.011Z,15.10
2022-12-27T12:15:13.186Z,10.30
2022-12-27T12:18:19.165Z,14.90
2022-12-27T12:21:12.412Z,18.90
2022-12-27T12:24:18.034Z,18.90
2022-12-27T12:27:07.883Z,16.70
2022-12-27T12:30:00.557Z,16.00
2022-12-27T12:32:56.803Z,13.00
2022-12-27T12:35:44.039Z,12.30
2022-12-27T12:38:39.932Z,15.90
2022-12-27T12:41:36.050Z,15.80
2022-12-27T12:44:23.382Z,16.90
2022-12-27T12:47:33.454Z,16.00
2022-12-27T12:50:15.400Z,18.60
2022-12-27T12:52:51.770Z,19.90
2022-12-27T12:55:38.688Z,20.70
2022-12-27T12:58:39.381Z,14.80
2022-12-27T13:01:10.408Z,15.10
2022-12-27T13:04:01.092Z,21.40
2022-12-27T13:07:06.852Z,18.00
2022-12-27T13:09:59.778Z,21.80
2022-12-27T13:12:40.064Z,21.60
2022-12-27T13:15:36.260Z,22.70
2022-12-27T13:18:30.856Z,19.60
2022-12-27T13:21:40.823Z,19.50
2022-12-27T13:24:29.624Z,26.10
2022-12-27T13:27:13.501Z,19.60
2022-12-27T13:30:00.436Z,22.50
2022-12-27T13:32:42.210Z,20.70
2022-12-27T13:35:38.231Z,22.40
2022-12-27T13:38:07.514Z,20.90
2022-12-27T13:41:08.138Z,21.30
2022-12-27T13:44:00.840Z,16.40
2022-12-27T13:46:43.734Z,16.90
2022-12-27T13:49:30.705Z,19.10
2022-12-27T13:52:30.901Z,16.40
2022-12-27T13:55:24.224Z,20.80
2022-12-27T13:58:19.917Z,18.30
2022-12-27T14:01:09.432Z,18.80
2022-12-27T14:03:40.825Z,17.60
2022-12-27T14:06:35.563Z,18.30
2022-12-27T14:09:27.560Z,25.90
2022-12-27T14:12:22.166Z,19.40
2022-12-27T14:14:51.691Z,17.40
2022-12-27T14:17:34.920Z,19.10
2022-12-27T14:20:27.794Z,13.00
2022-12-27T14:23:28.772Z,16.70
2022-12-27T14:26:02.794Z,13.40
2022-12-27T14:28:47.908Z,12.10
2022-12-27T14:31:34.153Z,11.10
2022-12-27T14:34:05.500Z,9.20
2022-12-27T14:36:52.223Z,7.40
2022-12-27T14:39:57.500Z,10.70
2022-12-27T14:42:50.657Z,10.50
2022-12-27T14:45:40.422Z,10.20
2022-12-27T14:48:28.914Z,7.80
2022-12-27T14:51:59.992Z,10.30
2022-12-27T14:54:45.420Z,11.60
2022-12-27T14:57:38.054Z,7.80
2022-12-27T15:00:51.813Z,9.90
2022-12-27T15:03:48.019Z,9.50
2022-12-27T15:06:45.101Z,10.90
2022-12-27T15:09:25.529Z,9.50
2022-12-27T15:12:24.088Z,10.50
2022-12-27T15:15:15.317Z,10.20
2022-12-27T15:17:58.525Z,7.40
2022-12-27T15:20:53.130Z,8.60
2022-12-27T15:23:31.002Z,9.70
2022-12-27T15:26:14.291Z,7.00
2022-12-27T15:29:13.315Z,10.80
2022-12-27T15:31:57.201Z,10.00
2022-12-27T15:34:44.545Z,8.10
2022-12-27T15:38:10.200Z,9.20
2022-12-27T15:40:57.113Z,11.40
2022-12-27T15:43:37.248Z,8.50
2022-12-27T15:46:42.759Z,9.70
2022-12-27T15:49:13.644Z,7.20
2022-12-27T15:51:48.913Z,9.50
2022-12-27T15:54:29.267Z,8.50
2022-12-27T15:57:26.759Z,6.70
2022-12-27T16:00:16.323Z,8.80
2022-12-27T16:02:53.265Z,9.70
2022-12-27T16:05:24.368Z,9.40
2022-12-27T16:08:01.380Z,7.60
2022-12-27T16:10:32.693Z,6.90
2022-12-27T16:13:10.003Z,9.40
2022-12-27T16:15:44.884Z,9.20
2022-12-27T16:18:20.725Z,7.20
2022-12-27T16:21:04.017Z,6.10
2022-12-27T16:24:06.912Z,7.40
2022-12-27T16:26:36.587Z,6.50
2022-12-27T16:29:13.249Z,6.50
2022-12-27T16:31:50.953Z,8.60
2022-12-27T16:34:26.067Z,6.00
2022-12-27T16:36:58.645Z,7.50
2022-12-27T16:39:39.297Z,5.00
2022-12-27T16:42:08.672Z,7.30
2022-12-27T16:44:58.327Z,4.90
2022-12-27T16:47:48.499Z,7.10
2022-12-27T16:50:28.011Z,8.30
2022-12-27T16:53:05.380Z,6.90
2022-12-27T16:56:11.955Z,6.40
2022-12-27T16:58:40.635Z,7.60
2022-12-27T17:01:37.694Z,8.10
2022-12-27T17:04:06.258Z,6.50
2022-12-27T17:06:37.677Z,7.90
2022-12-27T17:09:09.169Z,8.00
2022-12-27T17:12:00.990Z,6.90
2022-12-27T17:14:34.497Z,7.70
2022-12-27T17:17:08.789Z,8.90
2022-12-27T17:19:44.107Z,7.80
2022-12-27T17:22:16.439Z,7.10
2022-12-27T17:24:46.984Z,7.70
2022-12-27T17:27:17.877Z,8.70
2022-12-27T17:30:07.848Z,9.30
2022-12-27T17:33:17.666Z,13.40
2022-12-27T17:35:53.276Z,9.50
2022-12-27T17:38:27.825Z,6.70
2022-12-27T17:41:16.574Z,8.20
2022-12-27T17:44:25.269Z,9.20
2022-12-27T17:47:29.793Z,9.30
2022-12-27T17:50:03.996Z,7.30
2022-12-27T17:52:51.095Z,8.80
2022-12-27T17:55:42.512Z,7.30
2022-12-27T17:58:16.315Z,7.30
2022-12-27T18:00:55.387Z,6.90
2022-12-27T18:03:33.865Z,5.50
2022-12-27T18:06:02.476Z,8.10
2022-12-27T18:08:34.278Z,9.10
2022-12-27T18:11:05.469Z,8.80
2022-12-27T18:13:38.402Z,8.60
2022-12-27T18:16:18.992Z,5.40
2022-12-27T18:18:50.515Z,7.50
2022-12-27T18:21:30.410Z,7.80
2022-12-27T18:23:59.211Z,10.50
2022-12-27T18:26:41.236Z,11.10
2022-12-27T18:29:12.483Z,7.10
2022-12-27T18:31:54.270Z,11.00
2022-12-27T18:34:52.325Z,12.00
2022-12-27T18:37:23.590Z,9.40
2022-12-27T18:39:54.427Z,10.10
2022-12-27T18:42:31.861Z,9.60
2022-12-27T18:45:04.721Z,12.40
2022-12-27T18:47:40.246Z,6.80
2022-12-27T18:50:18.493Z,12.70
2022-12-27T18:52:51.314Z,9.30
2022-12-27T18:55:27.598Z,10.20
2022-12-27T18:58:23.676Z,11.70
2022-12-27T19:01:00.511Z,13.20
2022-12-27T19:03:33.845Z,11.80
2022-12-27T19:06:13.285Z,10.90
2022-12-27T19:08:49.980Z,18.20
2022-12-27T19:11:31.689Z,15.60
2022-12-27T19:14:05.228Z,16.90
2022-12-27T19:16:36.011Z,17.50
2022-12-27T19:19:15.145Z,15.20
2022-12-27T19:21:44.126Z,14.70
2022-12-27T19:24:19.973Z,18.30
2022-12-27T19:26:48.609Z,11.00
2022-12-27T19:29:20.344Z,15.30
2022-12-27T19:32:05.122Z,14.60
2022-12-27T19:34:44.612Z,19.30
2022-12-27T19:37:14.468Z,14.40
2022-12-27T19:39:47.264Z,15.90
2022-12-27T19:42:21.832Z,18.10
2022-12-27T19:44:51.080Z,18.40
2022-12-27T19:47:20.595Z,21.10
2022-12-27T19:49:49.877Z,24.30
2022-12-27T19:52:22.436Z,28.00
2022-12-27T19:54:56.203Z,29.90
2022-12-27T19:57:24.708Z,25.20
2022-12-27T19:59:54.031Z,24.70
2022-12-27T20:02:23.458Z,28.50
2022-12-27T20:04:52.263Z,31.60
2022-12-27T20:07:24.034Z,29.30
2022-12-27T20:09:52.715Z,27.70
2022-12-27T20:12:22.412Z,27.30
2022-12-27T20:14:51.621Z,27.60
2022-12-27T20:17:20.032Z,25.80
2022-12-27T20:19:48.623Z,24.60
2022-12-27T20:22:16.992Z,25.30
2022-12-27T20:24:46.909Z,31.00
2022-12-27T20:27:15.239Z,26.40
2022-12-27T20:29:44.290Z,29.00
2022-12-27T20:32:13.044Z,31.30
2022-12-27T20:34:41.294Z,31.40
2022-12-27T20:37:10.954Z,28.20
2022-12-27T20:39:39.293Z,29.70
2022-12-27T20:42:07.496Z,31.80
2022-12-27T20:44:35.723Z,29.30
2022-12-27T20:47:04.061Z,25.30
2022-12-27T20:49:32.246Z,27.60
2022-12-27T20:52:00.466Z,30.20
2022-12-27T20:54:29.205Z,28.50
2022-12-27T20:56:57.577Z,28.60
2022-12-27T20:59:25.801Z,28.60
2022-12-27T21:01:57.247Z,30.20
2022-12-27T21:04:29.338Z,28.40
2022-12-27T21:06:58.046Z,33.80
2022-12-27T21:09:26.409Z,28.10
2022-12-27T21:11:55.179Z,26.70
2022-12-27T21:14:24.284Z,28.00
2022-12-27T21:16:52.768Z,32.20
2022-12-27T21:19:21.042Z,33.20
2022-12-27T21:21:49.349Z,32.40
2022-12-27T21:24:17.666Z,32.80
2022-12-27T21:26:46.293Z,39.10
2022-12-27T21:29:16.499Z,39.10
2022-12-27T21:31:45.437Z,40.30
2022-12-27T21:34:13.776Z,35.30
2022-12-27T21:36:43.105Z,39.30
2022-12-27T21:39:11.594Z,38.00
2022-12-27T21:41:41.307Z,34.20
2022-12-27T21:44:10.078Z,47.90
2022-12-27T21:46:41.269Z,34.10
2022-12-27T21:49:13.261Z,31.60
2022-12-27T21:51:43.411Z,36.20
2022-12-27T21:54:13.967Z,37.60
2022-12-27T21:56:42.915Z,42.80
2022-12-27T21:59:12.206Z,35.70
2022-12-27T22:01:50.087Z,35.00
2022-12-27T22:04:21.870Z,32.30
2022-12-27T22:06:50.492Z,37.50
2022-12-27T22:09:19.551Z,33.60
2022-12-27T22:11:48.576Z,37.80
2022-12-27T22:14:19.541Z,36.50
2022-12-27T22:16:50.302Z,35.20
2022-12-27T22:19:18.760Z,33.40
2022-12-27T22:21:47.209Z,31.90
2022-12-27T22:24:19.997Z,28.60
2022-12-27T22:26:50.303Z,27.60
2022-12-27T22:29:19.580Z,32.00
2022-12-27T22:31:48.142Z,40.70
2022-12-27T22:34:17.016Z,46.10
2022-12-27T22:36:45.490Z,36.10
2022-12-27T22:39:13.965Z,36.70
2022-12-27T22:41:42.257Z,32.10
2022-12-27T22:44:13.650Z,30.90
2022-12-27T22:47:25.161Z,25.90
2022-12-27T22:49:31.809Z,21.70
2022-12-27T22:52:00.550Z,20.10
2022-12-27T22:55:03.398Z,21.40
2022-12-27T22:57:17.764Z,26.30
2022-12-27T22:59:46.123Z,20.00
2022-12-27T23:02:14.480Z,20.20
2022-12-27T23:04:42.822Z,22.60
2022-12-27T23:07:20.412Z,20.40
2022-12-27T23:09:49.476Z,20.20
2022-12-27T23:12:18.191Z,26.40
2022-12-27T23:14:46.754Z,25.40
2022-12-27T23:17:15.292Z,24.50
2022-12-27T23:19:43.599Z,25.80
2022-12-27T23:22:11.948Z,22.50
2022-12-27T23:24:40.226Z,27.40
2022-12-27T23:27:08.560Z,24.10
2022-12-27T23:29:36.781Z,20.50
2022-12-27T23:32:05.080Z,23.70
2022-12-27T23:34:33.269Z,21.30
2022-12-27T23:37:01.579Z,20.50
2022-12-27T23:39:30.061Z,19.70
2022-12-27T23:41:59.016Z,22.00
2022-12-27T23:44:34.222Z,20.30
2022-12-27T23:47:05.396Z,24.10
2022-12-27T23:49:34.917Z,22.40
2022-12-27T23:52:03.886Z,24.50
2022-12-27T23:54:32.124Z,21.70
2022-12-27T23:57:22.353Z,23.20
2022-12-27T23:59:49.539Z,18.90
